Pagrindinis puslapis
METAR-TAF:

METAR-TAF

Oro uostai :

Budapešto Ferenco Listo tarptautinis oro uostas

Budapeštas, Vengrija

platuma: 47-26N, ilguma: 019-16E, Aukštis: 151 m

Dabartinis oras

Ataskaita buvo paskelbta 11 minutes, ne 21:30 UTC
Vėjas 2 kt nuo kintamojo kryptimis
Temperatūra -1°C
Drėgmė 100%
Slėgis 1046 hPa
Matomumas: 0250 m
įšaldymas rūko

METAR: LHBP 202130Z VRB02KT 0250 R31L/0400N R31R/0400N FZFG VV001 M01/M01 Q1046 NOSIG

Laikas: 22:41 (21:41 UTC)

Prognozė

Ataskaita buvo paskelbta 4 valandos ir 26 minutes, ne 17:15 UTC
Prognozė galioja nuo 20 metu 18 UTC su 21 metu 18 UTC
Vėjas 3 kt nuo kintamojo kryptimis
Matomumas: 1200 m
Išsisklaidę debesys ne aukštis 400 ft
Rūkas lopais, rūkana
Laikinai
nuo 20 metu 18 UTC su 21 metu 08 UTC
Matomumas: 0300 m
ne aukštis 100 ft
įšaldymas rūko
Tapsmas
nuo 21 metu 08 UTC su 21 metu 11 UTC
Vėjas 7 kt iš Vakarų/Pietvakarių
Matomumas: 5000 m
rūkana

TAF: LHBP 201715Z 2018/2118 VRB03KT 1200 BCFG BR SCT004 TEMPO 2018/2108 0300 FZFG VV001 BECMG 2108/2111 24007KT 5000 BR

Orai ataskaitas ir orų prognozės (METAR, TAF).

turimą stotys yra geltonos ir raudonos taškus žemėlapyje.

Perkelti pele per norėdami pamatyti stoties vardą.

Tada spustelėkite, norėdami matyti oro stebėjimo ir prognozės.

Norėdami pakeisti žemėlapį: spustelėkite ant žalios mygtukų su juodo kryžiaus žemyn,; žalią mygtuką su brūkšneliu, jei norite nutolinti; arba žalių rodyklių gretimoms žemėlapius.


METAR-TAF: